Time;durP1;ratioP1;P1;durP2;ratioP2;P2;SDS_P1;SDS_P2;PMS_P1;PMS_P2;Temp;Humidity;BMP_temperature;BMP_pressure;BME280_temperature;BME280_humidity;BME280_pressure;Samples;Min_cycle;Max_cycle;Signal;HPM_P1;HPM_P2
2022/07/20 00:02:21;;;;;;;;;;;;;;;22.83;47.65;101361.84;7404322;19;1659;-47
2022/07/20 00:04:49;;;;;;;;;;;;;;;22.83;47.78;101373.47;7406318;19;1598;-47
2022/07/20 00:07:18;;;;;;;;;;;;;;;22.84;47.77;101355.47;7405118;19;2055;-47
2022/07/20 00:12:29;;;;;;;;;;;;;;;22.82;47.87;101352.06;7400692;19;1897;-47
2022/07/20 00:14:57;;;;;;;;;;;;;;;22.82;47.62;101352.91;7405775;19;1631;-48
2022/07/20 00:17:26;;;;;;;;;;;;;;;22.81;47.68;101358.44;7403661;19;1916;-47
2022/07/20 00:19:54;;;;;;;;;;;;;;;22.76;47.64;101336.44;7405042;19;1568;-47
2022/07/20 00:22:22;;;;;;;;;;;;;;;22.73;47.86;101353.78;7405189;19;1717;-47
2022/07/20 00:24:50;;;;;;;;;;;;;;;22.82;47.74;101343.97;7405717;19;1827;-47
2022/07/20 00:27:19;;;;;;;;;;;;;;;22.71;47.80;101336.06;7405609;19;1730;-48
2022/07/20 00:29:50;;;;;;;;;;;;;;;22.61;48.15;101344.16;7405182;19;1978;-47
2022/07/20 00:32:18;;;;;;;;;;;;;;;22.68;48.18;101347.13;7404518;19;1672;-48
2022/07/20 00:34:46;;;;;;;;;;;;;;;22.73;47.66;101347.53;7404855;19;1572;-46
2022/07/20 00:37:14;;;;;;;;;;;;;;;22.75;47.76;101348.25;7401647;19;1843;-47
2022/07/20 00:39:43;;;;;;;;;;;;;;;22.70;48.03;101337.91;7404220;19;1943;-46
2022/07/20 00:42:11;;;;;;;;;;;;;;;22.64;47.90;101343.84;7403011;19;1991;-46
2022/07/20 00:44:39;;;;;;;;;;;;;;;22.73;47.68;101342.16;7404509;19;1873;-47
2022/07/20 00:47:10;;;;;;;;;;;;;;;22.67;48.05;101335.50;7404712;19;1530;-47
2022/07/20 00:49:38;;;;;;;;;;;;;;;22.60;48.01;101326.28;7404687;19;1609;-47
2022/07/20 00:52:07;;;;;;;;;;;;;;;22.70;47.68;101334.34;7403750;19;1682;-47
2022/07/20 00:54:35;;;;;;;;;;;;;;;22.78;47.76;101334.44;7401902;19;1581;-47
2022/07/20 00:57:04;;;;;;;;;;;;;;;22.61;47.97;101353.09;7399929;19;1862;-47
2022/07/20 00:59:32;;;;;;;;;;;;;;;22.63;48.23;101348.41;7404340;19;1609;-47
2022/07/20 01:02:01;;;;;;;;;;;;;;;22.61;48.19;101345.00;7402732;19;1538;-47
2022/07/20 01:04:32;;;;;;;;;;;;;;;22.75;47.76;101350.94;7403970;19;1690;-47
2022/07/20 01:07:00;;;;;;;;;;;;;;;22.74;47.84;101343.81;7403490;19;1787;-47
2022/07/20 01:09:29;;;;;;;;;;;;;;;22.68;47.84;101341.72;7403959;19;1730;-47
2022/07/20 01:11:57;;;;;;;;;;;;;;;22.55;48.12;101340.19;7402313;19;1617;-47
2022/07/20 01:14:25;;;;;;;;;;;;;;;22.57;48.22;101348.97;7403450;19;1603;-47
2022/07/20 01:16:53;;;;;;;;;;;;;;;22.62;48.29;101341.31;7402821;19;1853;-47
2022/07/20 01:19:22;;;;;;;;;;;;;;;22.60;48.29;101345.13;7403296;19;1584;-47
2022/07/20 01:21:53;;;;;;;;;;;;;;;22.60;48.15;101351.41;7402910;19;1573;-47
2022/07/20 01:24:21;;;;;;;;;;;;;;;22.65;48.17;101345.56;7402464;19;1886;-47
2022/07/20 01:26:49;;;;;;;;;;;;;;;22.61;48.11;101342.31;7403860;19;1560;-47
2022/07/20 01:29:18;;;;;;;;;;;;;;;22.58;48.49;101350.69;7402907;19;1953;-47
2022/07/20 01:31:46;;;;;;;;;;;;;;;22.54;48.22;101343.91;7402859;19;1678;-47
2022/07/20 01:34:14;;;;;;;;;;;;;;;22.62;48.04;101356.63;7401852;19;1388;-47
2022/07/20 01:36:43;;;;;;;;;;;;;;;22.63;47.84;101356.50;7402078;19;1863;-47
2022/07/20 01:39:13;;;;;;;;;;;;;;;22.58;48.20;101358.78;7404132;19;1835;-47
2022/07/20 01:41:42;;;;;;;;;;;;;;;22.60;48.23;101356.78;7402913;19;1735;-46
2022/07/20 01:44:10;;;;;;;;;;;;;;;22.54;48.05;101354.69;7401754;19;1890;-47
2022/07/20 01:46:38;;;;;;;;;;;;;;;22.56;48.27;101344.59;7401991;19;1827;-47
2022/07/20 01:49:07;;;;;;;;;;;;;;;22.58;48.23;101356.09;7400925;19;1664;-47
2022/07/20 01:51:35;;;;;;;;;;;;;;;22.64;48.24;101358.22;7400787;19;1752;-47
2022/07/20 01:54:04;;;;;;;;;;;;;;;22.58;47.99;101348.00;7403261;19;1915;-47
2022/07/20 01:56:35;;;;;;;;;;;;;;;22.61;48.20;101349.56;7401755;19;1843;-47
2022/07/20 01:59:03;;;;;;;;;;;;;;;22.59;48.00;101368.56;7401372;19;1692;-47
2022/07/20 02:01:31;;;;;;;;;;;;;;;22.49;48.28;101362.34;7393613;19;3308;-58
2022/07/20 02:04:00;;;;;;;;;;;;;;;22.48;48.40;101360.63;7405482;19;1649;-58
2022/07/20 02:06:28;;;;;;;;;;;;;;;22.53;48.42;101354.81;7403957;19;1590;-58
2022/07/20 02:08:57;;;;;;;;;;;;;;;22.52;48.29;101353.97;7404515;19;1578;-58
2022/07/20 02:11:25;;;;;;;;;;;;;;;22.52;48.23;101370.16;7403572;19;1563;-58
2022/07/20 02:13:57;;;;;;;;;;;;;;;22.49;48.21;101354.25;7404759;19;1335;-58
2022/07/20 02:16:25;;;;;;;;;;;;;;;22.47;48.49;101364.31;7405152;19;1864;-58
2022/07/20 02:18:55;;;;;;;;;;;;;;;22.39;48.24;101356.13;7405203;19;1615;-58
2022/07/20 02:21:24;;;;;;;;;;;;;;;22.44;47.95;101359.22;7404834;19;1610;-58
2022/07/20 02:23:53;;;;;;;;;;;;;;;22.47;48.24;101356.25;7404636;19;1345;-58
2022/07/20 02:26:22;;;;;;;;;;;;;;;22.28;48.20;101348.16;7403706;19;1255;-58
2022/07/20 02:28:51;;;;;;;;;;;;;;;22.12;48.62;101359.50;7400577;19;1377;-58
2022/07/20 02:31:23;;;;;;;;;;;;;;;22.32;48.35;101369.31;7399324;19;1385;-58
2022/07/20 02:33:51;;;;;;;;;;;;;;;22.37;48.14;101352.72;7399980;19;1420;-58
2022/07/20 02:36:20;;;;;;;;;;;;;;;22.41;48.08;101370.28;7400411;19;1432;-59
2022/07/20 02:38:49;;;;;;;;;;;;;;;22.32;48.09;101360.38;7400863;19;1858;-58
2022/07/20 02:41:18;;;;;;;;;;;;;;;22.21;48.35;101356.78;7405036;19;1650;-58
2022/07/20 02:43:46;;;;;;;;;;;;;;;22.38;47.98;101362.47;7403045;19;1532;-58
2022/07/20 02:46:15;;;;;;;;;;;;;;;22.27;48.32;101359.97;7402349;19;1346;-58
2022/07/20 02:48:46;;;;;;;;;;;;;;;22.39;48.22;101372.28;7404274;19;1598;-58
2022/07/20 02:51:14;;;;;;;;;;;;;;;22.36;47.97;101356.38;7404179;19;1547;-58
2022/07/20 02:53:43;;;;;;;;;;;;;;;22.31;48.39;101374.84;7404364;19;1531;-59
2022/07/20 02:56:11;;;;;;;;;;;;;;;22.23;48.22;101375.53;7403459;19;1429;-58
2022/07/20 02:58:40;;;;;;;;;;;;;;;22.27;48.13;101370.72;7400284;19;1855;-59
2022/07/20 03:01:08;;;;;;;;;;;;;;;22.30;48.39;101367.75;7403772;19;1606;-57
2022/07/20 03:03:37;;;;;;;;;;;;;;;22.29;48.40;101371.44;7402617;19;1678;-60
2022/07/20 03:06:08;;;;;;;;;;;;;;;22.29;48.42;101368.75;7403115;19;1686;-60
2022/07/20 03:08:37;;;;;;;;;;;;;;;22.22;48.31;101369.28;7403897;19;1528;-57
2022/07/20 03:11:06;;;;;;;;;;;;;;;22.27;48.55;101368.03;7402828;19;1516;-57
2022/07/20 03:13:34;;;;;;;;;;;;;;;22.25;48.65;101365.47;7401761;19;1521;-58
2022/07/20 03:16:02;;;;;;;;;;;;;;;22.29;48.58;101376.84;7403546;19;1340;-59
2022/07/20 03:18:31;;;;;;;;;;;;;;;22.28;48.50;101380.50;7408329;19;1842;-59
2022/07/20 03:20:59;;;;;;;;;;;;;;;22.32;48.44;101382.78;7410878;19;1418;-58
2022/07/20 03:23:31;;;;;;;;;;;;;;;22.30;48.58;101383.91;7410728;19;1738;-58
2022/07/20 03:25:59;;;;;;;;;;;;;;;22.30;48.50;101375.81;7407798;19;1777;-58
2022/07/20 03:28:28;;;;;;;;;;;;;;;22.40;48.02;101379.34;7411051;19;1524;-59
2022/07/20 03:30:56;;;;;;;;;;;;;;;22.31;48.53;101380.22;7409650;19;1358;-58
2022/07/20 03:33:25;;;;;;;;;;;;;;;22.34;48.17;101380.81;7409656;19;1408;-58
2022/07/20 03:35:54;;;;;;;;;;;;;;;22.43;48.35;101389.88;7410510;19;1208;-58
2022/07/20 03:38:22;;;;;;;;;;;;;;;22.41;48.10;101391.84;7409121;19;1842;-58
2022/07/20 03:40:53;;;;;;;;;;;;;;;22.36;48.28;101384.22;7409628;19;1631;-57
2022/07/20 03:43:25;;;;;;;;;;;;;;;22.39;48.35;101393.84;7409815;19;1349;-57
2022/07/20 03:45:53;;;;;;;;;;;;;;;22.39;48.46;101388.44;7410239;19;1405;-59
2022/07/20 03:48:22;;;;;;;;;;;;;;;22.40;48.51;101396.41;7409343;19;1350;-58
2022/07/20 03:50:51;;;;;;;;;;;;;;;22.38;48.30;101393.00;7409402;19;1295;-58
2022/07/20 03:53:19;;;;;;;;;;;;;;;22.44;48.38;101395.13;7338563;19;13933;-57
2022/07/20 03:55:47;;;;;;;;;;;;;;;;;;7408937;19;1162;-57
2022/07/20 03:58:19;;;;;;;;;;;;;;;22.43;48.30;101389.88;7403009;19;1846;-59
2022/07/20 04:00:47;;;;;;;;;;;;;;;22.48;48.47;101390.28;7403757;19;1366;-59
2022/07/20 04:03:15;;;;;;;;;;;;;;;22.47;48.71;101401.22;7406488;19;1363;-59
2022/07/20 04:05:44;;;;;;;;;;;;;;;22.59;48.29;101400.06;7410481;19;1371;-58
2022/07/20 04:08:13;;;;;;;;;;;;;;;22.59;48.53;101406.28;7410031;19;1128;-55
2022/07/20 04:10:41;;;;;;;;;;;;;;;22.64;48.10;101408.56;7408679;19;1375;-58
2022/07/20 04:13:10;;;;;;;;;;;;;;;22.62;48.64;101411.41;7408817;19;1333;-54
2022/07/20 04:15:41;;;;;;;;;;;;;;;22.53;48.72;101420.34;7409185;19;1335;-57
2022/07/20 04:18:09;;;;;;;;;;;;;;;22.61;48.55;101423.19;7408637;19;1853;-60
2022/07/20 04:20:38;;;;;;;;;;;;;;;22.62;48.59;101407.84;7409775;19;1311;-60
2022/07/20 04:23:07;;;;;;;;;;;;;;;22.61;48.97;101398.91;7408564;19;1334;-60
2022/07/20 04:25:35;;;;;;;;;;;;;;;22.70;48.47;101404.44;7407593;19;1331;-60
2022/07/20 04:28:04;;;;;;;;;;;;;;;22.73;49.34;101402.31;7406503;19;1342;-60
2022/07/20 04:30:35;;;;;;;;;;;;;;;22.79;49.80;101407.13;7406385;19;1343;-60
2022/07/20 04:33:06;;;;;;;;;;;;;;;22.82;50.09;101392.50;7409223;19;1035;-56
2022/07/20 04:35:35;;;;;;;;;;;;;;;22.97;49.53;101401.81;7408105;19;1323;-55
2022/07/20 04:38:03;;;;;;;;;;;;;;;22.94;49.53;101391.34;7405893;19;1842;-55
2022/07/20 04:40:32;;;;;;;;;;;;;;;23.11;50.49;101405.94;7405943;19;1362;-56
2022/07/20 04:43:00;;;;;;;;;;;;;;;23.20;50.64;101404.22;7402305;19;1406;-56
2022/07/20 04:45:29;;;;;;;;;;;;;;;23.29;50.86;101403.31;7404482;19;1501;-56
2022/07/20 04:47:57;;;;;;;;;;;;;;;23.24;51.01;101402.91;7404653;19;1530;-55
2022/07/20 04:50:28;;;;;;;;;;;;;;;23.27;50.88;101399.91;7405371;19;1684;-56
2022/07/20 04:52:57;;;;;;;;;;;;;;;23.30;50.86;101405.03;7403697;19;1768;-56
2022/07/20 04:55:26;;;;;;;;;;;;;;;23.34;51.20;101402.88;7405236;19;1549;-56
2022/07/20 04:57:54;;;;;;;;;;;;;;;23.37;51.10;101414.19;7405700;19;1852;-56
2022/07/20 05:00:22;;;;;;;;;;;;;;;23.40;51.49;101400.41;7408349;19;1538;-55
2022/07/20 05:02:51;;;;;;;;;;;;;;;23.39;51.64;101398.72;7407530;19;1526;-56
2022/07/20 05:05:20;;;;;;;;;;;;;;;23.38;51.80;101391.63;7407609;19;1493;-56
2022/07/20 05:07:51;;;;;;;;;;;;;;;23.43;51.66;101394.72;7407423;19;1746;-56
2022/07/20 05:10:19;;;;;;;;;;;;;;;23.48;51.83;101396.97;7407238;19;1727;-56
2022/07/20 05:12:48;;;;;;;;;;;;;;;23.46;52.48;101398.09;7407054;19;1541;-56
2022/07/20 05:15:16;;;;;;;;;;;;;;;23.48;52.33;101396.13;7408178;19;1501;-56
2022/07/20 05:17:45;;;;;;;;;;;;;;;23.50;52.57;101402.22;7406267;19;1853;-56
2022/07/20 05:20:14;;;;;;;;;;;;;;;23.50;52.56;101397.69;7406686;19;1761;-56
2022/07/20 05:22:42;;;;;;;;;;;;;;;23.54;52.62;101400.94;7404955;19;1770;-56
2022/07/20 05:25:13;;;;;;;;;;;;;;;23.53;52.84;101404.63;7406225;19;1468;-56
2022/07/20 05:27:42;;;;;;;;;;;;;;;23.52;52.79;101397.53;7407216;19;1444;-56
2022/07/20 05:30:11;;;;;;;;;;;;;;;23.59;52.56;101409.41;7406844;19;1731;-55
2022/07/20 05:32:39;;;;;;;;;;;;;;;23.52;52.97;101392.13;7405601;19;1384;-56
2022/07/20 05:35:09;;;;;;;;;;;;;;;23.55;52.92;101402.63;7405416;19;1318;-55
2022/07/20 05:37:37;;;;;;;;;;;;;;;23.53;53.15;101410.84;7405327;19;1862;-56
2022/07/20 05:40:07;;;;;;;;;;;;;;;23.54;52.87;101411.72;7405916;19;1377;-56
2022/07/20 05:42:38;;;;;;;;;;;;;;;23.55;53.26;101414.25;7403563;19;1352;-56
2022/07/20 05:45:07;;;;;;;;;;;;;;;23.52;52.95;101424.53;7405347;19;1303;-55
2022/07/20 05:47:35;;;;;;;;;;;;;;;23.53;53.21;101396.53;7404935;19;1323;-56
2022/07/20 05:50:04;;;;;;;;;;;;;;;23.55;53.25;101425.06;7404873;19;1318;-56
2022/07/20 05:52:32;;;;;;;;;;;;;;;23.49;53.25;101414.03;7402959;19;1719;-56
2022/07/20 05:55:01;;;;;;;;;;;;;;;23.49;52.79;101403.22;7405911;19;1445;-56
2022/07/20 05:57:29;;;;;;;;;;;;;;;23.57;53.18;101406.00;7403188;19;1722;-56
2022/07/20 06:00:00;;;;;;;;;;;;;;;23.49;52.85;101405.91;7403635;19;1849;-56
2022/07/20 06:02:29;;;;;;;;;;;;;;;23.52;52.73;101409.19;7401057;19;1268;-56
2022/07/20 06:04:57;;;;;;;;;;;;;;;23.54;53.06;101406.34;7405702;19;1172;-56
2022/07/20 06:07:26;;;;;;;;;;;;;;;23.54;52.92;101401.78;7404579;19;1400;-56
2022/07/20 06:09:54;;;;;;;;;;;;;;;23.56;52.57;101410.56;7405109;19;1451;-56
2022/07/20 06:12:23;;;;;;;;;;;;;;;23.56;52.51;101398.94;7405289;19;1468;-56
2022/07/20 06:14:51;;;;;;;;;;;;;;;23.57;52.61;101395.22;7404640;19;1647;-56
2022/07/20 06:17:22;;;;;;;;;;;;;;;23.63;52.46;101408.13;7404560;19;1260;-56
2022/07/20 06:19:51;;;;;;;;;;;;;;;23.59;52.50;101382.41;7402948;19;1857;-56
2022/07/20 06:22:19;;;;;;;;;;;;;;;23.63;52.55;101416.22;7404089;19;1314;-56
2022/07/20 06:24:48;;;;;;;;;;;;;;;23.59;52.53;101398.63;7405170;19;1381;-56
2022/07/20 06:27:16;;;;;;;;;;;;;;;23.60;52.72;101400.31;7402740;19;1454;-56
2022/07/20 06:29:45;;;;;;;;;;;;;;;23.59;52.65;101404.00;7402150;19;1591;-55
2022/07/20 06:32:13;;;;;;;;;;;;;;;23.59;52.75;101393.22;7400466;19;1767;-56
2022/07/20 06:34:45;;;;;;;;;;;;;;;23.65;52.42;101408.81;7400487;19;1607;-60
2022/07/20 06:37:13;;;;;;;;;;;;;;;23.61;52.52;101410.13;7403249;19;1699;-56
2022/07/20 06:39:41;;;;;;;;;;;;;;;23.59;52.50;101399.47;7403359;19;1913;-56
2022/07/20 06:42:10;;;;;;;;;;;;;;;23.60;52.40;101397.63;7404616;19;1695;-56
2022/07/20 06:44:38;;;;;;;;;;;;;;;23.61;52.31;101399.31;7404444;19;1780;-60
2022/07/20 06:47:07;;;;;;;;;;;;;;;23.62;52.41;101393.78;7404274;19;1545;-56
2022/07/20 06:49:36;;;;;;;;;;;;;;;23.63;52.34;101400.00;7403497;19;1552;-60
2022/07/20 06:52:07;;;;;;;;;;;;;;;23.64;52.59;101385.53;7404888;19;1631;-56
2022/07/20 06:54:36;;;;;;;;;;;;;;;23.65;52.63;101386.38;7412077;19;1461;-60
2022/07/20 06:57:04;;;;;;;;;;;;;;;23.64;52.22;101396.31;7411492;19;1624;-56
2022/07/20 06:59:32;;;;;;;;;;;;;;;23.69;52.24;101396.69;7408827;19;1861;-55
2022/07/20 07:02:01;;;;;;;;;;;;;;;23.68;52.39;101399.59;7408638;19;1534;-56
2022/07/20 07:04:29;;;;;;;;;;;;;;;23.69;52.46;101394.00;7411224;19;1554;-56
2022/07/20 07:06:58;;;;;;;;;;;;;;;23.69;52.54;101401.25;7411953;19;1220;-56
2022/07/20 07:09:29;;;;;;;;;;;;;;;23.67;52.51;101397.88;7411074;19;1715;-60
2022/07/20 07:11:57;;;;;;;;;;;;;;;23.70;52.49;101398.41;7409769;19;1360;-61
2022/07/20 07:14:26;;;;;;;;;;;;;;;23.68;52.37;101386.91;7411449;19;1596;-56
2022/07/20 07:16:55;;;;;;;;;;;;;;;23.69;52.58;101383.19;7409750;19;1526;-60
2022/07/20 07:19:23;;;;;;;;;;;;;;;23.69;52.53;101391.31;7409869;19;1861;-55
2022/07/20 07:21:51;;;;;;;;;;;;;;;23.69;52.62;101391.31;7411655;19;1607;-60
2022/07/20 07:24:20;;;;;;;;;;;;;;;23.78;52.44;101414.75;7411792;19;1790;-60
2022/07/20 07:26:51;;;;;;;;;;;;;;;23.65;52.48;101373.72;7410681;19;1754;-56
2022/07/20 07:29:19;;;;;;;;;;;;;;;23.70;52.28;101395.72;7410430;19;1581;-60
2022/07/20 07:31:48;;;;;;;;;;;;;;;23.71;52.35;101388.47;7409794;19;1536;-56
2022/07/20 07:34:16;;;;;;;;;;;;;;;23.69;52.26;101385.91;7411409;19;1604;-55
2022/07/20 07:36:44;;;;;;;;;;;;;;;23.70;52.39;101381.38;7408924;19;1672;-59
2022/07/20 07:39:13;;;;;;;;;;;;;;;23.70;52.59;101379.50;7407778;19;1865;-58
2022/07/20 07:41:41;;;;;;;;;;;;;;;23.71;52.65;101394.69;7409172;19;1545;-52
2022/07/20 07:44:12;;;;;;;;;;;;;;;23.71;52.57;101377.66;7410774;19;1357;-58
2022/07/20 07:46:41;;;;;;;;;;;;;;;23.70;52.50;101379.50;7410319;19;1497;-53
2022/07/20 07:49:09;;;;;;;;;;;;;;;23.69;52.34;101385.91;7411357;19;1537;-52
2022/07/20 07:51:37;;;;;;;;;;;;;;;23.73;52.46;101371.09;7410374;19;1734;-57
2022/07/20 07:54:06;;;;;;;;;;;;;;;23.69;52.49;101361.59;7409808;19;1596;-57
2022/07/20 07:56:34;;;;;;;;;;;;;;;23.74;52.54;101374.66;7406853;19;1482;-53
2022/07/20 07:59:02;;;;;;;;;;;;;;;23.74;52.69;101375.50;7408419;19;1853;-53
2022/07/20 08:01:34;;;;;;;;;;;;;;;23.75;52.32;101365.53;7405796;19;1260;-53
2022/07/20 08:04:02;;;;;;;;;;;;;;;23.77;52.73;101383.31;7410176;19;1538;-53
2022/07/20 08:06:31;;;;;;;;;;;;;;;23.81;52.37;101371.25;7408158;19;1548;-53
2022/07/20 08:08:59;;;;;;;;;;;;;;;23.75;52.47;101371.78;7409531;19;1541;-53
2022/07/20 08:11:28;;;;;;;;;;;;;;;23.76;52.72;101367.25;7409618;19;1600;-52
2022/07/20 08:13:56;;;;;;;;;;;;;;;23.76;52.46;101384.31;7409065;19;1575;-53
2022/07/20 08:16:24;;;;;;;;;;;;;;;23.77;52.83;101367.13;7408355;19;1548;-53
2022/07/20 08:18:55;;;;;;;;;;;;;;;23.73;52.51;101349.50;7408973;19;1856;-58
2022/07/20 08:21:24;;;;;;;;;;;;;;;23.73;52.40;101349.50;7409025;19;1770;-57
2022/07/20 08:23:52;;;;;;;;;;;;;;;23.74;52.49;101350.38;7409502;19;1620;-52
2022/07/20 08:26:20;;;;;;;;;;;;;;;23.73;52.47;101346.78;7405511;19;1570;-58
2022/07/20 08:28:49;;;;;;;;;;;;;;;23.76;52.53;101340.25;7408588;19;1212;-53
2022/07/20 08:31:17;;;;;;;;;;;;;;;23.73;52.41;101346.78;7409223;19;1516;-53
2022/07/20 08:33:45;;;;;;;;;;;;;;;23.74;52.59;101337.69;7407332;19;1730;-53
2022/07/20 08:36:16;;;;;;;;;;;;;;;23.79;52.65;101354.31;7407887;19;1332;-53
2022/07/20 08:38:45;;;;;;;;;;;;;;;23.76;52.80;101351.06;7409142;19;1865;-58
2022/07/20 08:41:13;;;;;;;;;;;;;;;23.75;52.65;101344.78;7408312;19;1785;-56
2022/07/20 08:43:42;;;;;;;;;;;;;;;23.76;52.67;101340.25;7405358;19;1871;-53
2022/07/20 08:46:10;;;;;;;;;;;;;;;23.75;52.63;101333.97;7406386;19;1522;-53
2022/07/20 08:48:38;;;;;;;;;;;;;;;23.81;52.90;101348.75;7407581;19;1315;-53
2022/07/20 08:51:07;;;;;;;;;;;;;;;23.79;52.64;101335.41;7407091;19;1766;-58
2022/07/20 08:53:38;;;;;;;;;;;;;;;23.78;52.67;101327.47;7408935;19;1615;-52
2022/07/20 08:56:07;;;;;;;;;;;;;;;23.74;52.75;101345.81;7406690;19;1224;-58
2022/07/20 08:58:35;;;;;;;;;;;;;;;23.75;52.62;101325.88;7406047;19;1560;-58
2022/07/20 09:01:05;;;;;;;;;;;;;;;23.76;52.75;101327.59;7405951;19;1499;-52
2022/07/20 09:03:33;;;;;;;;;;;;;;;23.76;52.58;101322.19;7406353;19;1585;-58
2022/07/20 09:06:06;;;;;;;;;;;;;;;23.78;52.93;101333.72;7406872;19;1619;-53
2022/07/20 09:08:37;;;;;;;;;;;;;;;23.84;52.69;101342.22;7407869;19;1554;-58
2022/07/20 09:11:06;;;;;;;;;;;;;;;23.76;52.64;101322.19;7405583;19;1767;-53
2022/07/20 09:13:36;;;;;;;;;;;;;;;23.79;53.10;101339.97;7406022;19;1419;-58
2022/07/20 09:16:04;;;;;;;;;;;;;;;23.81;52.72;101317.22;7404883;19;1624;-53
2022/07/20 09:18:33;;;;;;;;;;;;;;;23.78;52.84;101330.19;7406357;19;1608;-52
2022/07/20 09:21:04;;;;;;;;;;;;;;;23.77;52.87;101304.13;7405535;19;1855;-53
2022/07/20 09:23:34;;;;;;;;;;;;;;;23.75;53.05;101311.53;7407704;19;1645;-58
2022/07/20 09:26:05;;;;;;;;;;;;;;;23.76;53.14;101308.69;7405902;19;1536;-57
2022/07/20 09:28:38;;;;;;;;;;;;;;;23.78;52.84;101305.88;7406616;19;1627;-58
2022/07/20 09:31:10;;;;;;;;;;;;;;;23.79;52.82;101324.59;7407275;19;1544;-53
2022/07/20 09:33:39;;;;;;;;;;;;;;;23.78;52.91;101312.13;7406735;19;1757;-52
2022/07/20 09:36:09;;;;;;;;;;;;;;;23.76;53.00;101297.88;7406204;19;1597;-58
2022/07/20 09:38:40;;;;;;;;;;;;;;;23.78;53.08;101295.06;7407905;19;947;-53
2022/07/20 09:41:24;;;;;;;;;;;;;;;23.82;53.21;101318.06;7403102;19;1914;-58
2022/07/20 09:43:52;;;;;;;;;;;;;;;23.78;52.78;101290.50;7404415;19;1604;-58
2022/07/20 09:46:22;;;;;;;;;;;;;;;23.80;52.91;101301.16;7405496;19;1263;-53
2022/07/20 09:48:51;;;;;;;;;;;;;;;23.79;53.24;101288.66;7406593;19;1270;-54
2022/07/20 09:51:21;;;;;;;;;;;;;;;23.78;52.86;101279.72;7405887;19;1514;-58
2022/07/20 09:53:49;;;;;;;;;;;;;;;23.80;53.19;101293.91;7405242;19;1465;-53
2022/07/20 09:56:21;;;;;;;;;;;;;;;23.77;52.88;101278.00;7403941;19;1493;-53
2022/07/20 09:58:53;;;;;;;;;;;;;;;23.78;53.23;101285.09;7403201;19;1272;-58
2022/07/20 10:01:23;;;;;;;;;;;;;;;23.78;53.05;101268.06;7401720;19;1871;-58
2022/07/20 10:03:53;;;;;;;;;;;;;;;23.76;53.30;101260.06;7403828;19;1806;-57
2022/07/20 10:06:22;;;;;;;;;;;;;;;23.76;53.14;101273.59;7404095;19;1371;-58
2022/07/20 10:08:51;;;;;;;;;;;;;;;23.77;53.36;101259.09;7406149;19;1563;-53
2022/07/20 10:11:23;;;;;;;;;;;;;;;23.77;53.05;101255.53;7405443;19;1608;-52
2022/07/20 10:13:53;;;;;;;;;;;;;;;23.79;53.05;101251.69;7404523;19;1540;-52
2022/07/20 10:16:27;;;;;;;;;;;;;;;23.76;53.34;101243.88;7404392;19;1569;-53
2022/07/20 10:18:56;;;;;;;;;;;;;;;23.78;53.25;101252.72;7404510;19;1376;-57
2022/07/20 10:21:34;;;;;;;;;;;;;;;23.78;53.20;101246.47;7402160;19;1849;-53
2022/07/20 10:24:19;;;;;;;;;;;;;;;23.80;53.29;101239.91;7405344;19;1505;-54
2022/07/20 10:26:51;;;;;;;;;;;;;;;23.80;53.28;101220.16;7404196;19;1678;-58
2022/07/20 10:29:31;;;;;;;;;;;;;;;23.82;53.40;101234.34;7404829;19;1564;-53
2022/07/20 10:32:00;;;;;;;;;;;;;;;23.80;53.19;101218.28;7403990;19;1324;-53
2022/07/20 10:34:35;;;;;;;;;;;;;;;23.81;53.22;101229.94;7403564;19;1355;-53
2022/07/20 10:37:19;;;;;;;;;;;;;;;23.81;53.34;101230.81;7404658;19;1371;-57
2022/07/20 10:39:49;;;;;;;;;;;;;;;23.80;53.37;101204.78;7404070;19;1852;-52
2022/07/20 10:42:28;;;;;;;;;;;;;;;23.81;53.30;101205.63;7404773;19;1533;-58
2022/07/20 10:44:56;;;;;;;;;;;;;;;23.80;53.22;101201.25;7404299;19;1603;-57
2022/07/20 10:47:39;;;;;;;;;;;;;;;23.80;53.61;101207.47;7403824;19;1600;-58
2022/07/20 10:50:09;;;;;;;;;;;;;;;23.80;53.24;101210.19;7402930;19;1192;-53
2022/07/20 10:52:37;;;;;;;;;;;;;;;23.81;53.52;101208.31;7403727;19;1311;-58
2022/07/20 10:55:06;;;;;;;;;;;;;;;23.81;53.55;101202.94;7404666;19;1638;-58
2022/07/20 10:57:39;;;;;;;;;;;;;;;23.78;53.47;101196.00;7404190;19;1494;-58
2022/07/20 11:00:12;;;;;;;;;;;;;;;23.84;53.26;101196.38;7404171;19;1854;-53
2022/07/20 11:02:40;;;;;;;;;;;;;;;23.82;53.54;101194.66;7400560;19;1572;-53
2022/07/20 11:05:20;;;;;;;;;;;;;;;23.82;53.35;101194.66;7402433;19;1358;-53
2022/07/20 11:07:48;;;;;;;;;;;;;;;23.81;53.38;101187.59;7402553;19;1325;-54
2022/07/20 11:10:26;;;;;;;;;;;;;;;23.82;53.55;101177.63;7401929;19;1283;-54
2022/07/20 11:13:03;;;;;;;;;;;;;;;23.82;53.67;101181.16;7404644;19;1394;-58
2022/07/20 11:15:51;;;;;;;;;;;;;;;23.82;53.37;101167.66;7403516;19;1612;-58
2022/07/20 11:18:20;;;;;;;;;;;;;;;23.86;53.64;101167.38;7403560;19;1631;-53
2022/07/20 11:20:49;;;;;;;;;;;;;;;23.84;53.76;101163.97;7402040;19;1851;-58
2022/07/20 11:23:18;;;;;;;;;;;;;;;23.87;53.68;101169.03;7403908;19;1537;-54
2022/07/20 11:25:47;;;;;;;;;;;;;;;23.89;53.31;101167.03;7401928;19;1604;-58
2022/07/20 11:28:19;;;;;;;;;;;;;;;23.87;53.54;101158.25;7402433;19;1470;-57
2022/07/20 11:30:48;;;;;;;;;;;;;;;23.88;53.70;101165.34;7403719;19;1287;-58
2022/07/20 11:33:18;;;;;;;;;;;;;;;23.88;53.32;101143.75;7402530;19;1311;-58
2022/07/20 11:35:46;;;;;;;;;;;;;;;23.95;53.37;101166.41;7404370;19;1340;-57
2022/07/20 11:38:15;;;;;;;;;;;;;;;23.88;53.62;101141.88;7406061;19;1512;-52
2022/07/20 11:40:43;;;;;;;;;;;;;;;23.88;53.53;101130.25;7407549;19;1862;-58
2022/07/20 11:43:13;;;;;;;;;;;;;;;23.89;53.72;101145.41;7409475;19;1627;-54
2022/07/20 11:45:44;;;;;;;;;;;;;;;23.90;53.30;101153.38;7410870;19;1631;-57
2022/07/20 11:48:20;;;;;;;;;;;;;;;23.88;53.47;101130.25;7409929;19;1564;-54
2022/07/20 11:50:48;;;;;;;;;;;;;;;23.90;53.64;101133.63;7409934;19;1569;-53
2022/07/20 11:53:27;;;;;;;;;;;;;;;23.89;53.54;101129.22;7410492;19;1646;-57
2022/07/20 11:55:56;;;;;;;;;;;;;;;23.90;53.35;101139.03;7408037;19;1552;-59
2022/07/20 11:58:29;;;;;;;;;;;;;;;23.89;53.73;101119.25;7407444;19;1619;-53
2022/07/20 12:01:00;;;;;;;;;;;;;;;23.89;53.80;101111.16;7408016;19;1861;-58
2022/07/20 12:03:31;;;;;;;;;;;;;;;23.89;53.66;101118.41;7408982;19;1778;-58
2022/07/20 12:06:02;;;;;;;;;;;;;;;23.92;53.57;101112.72;7409556;19;1619;-58
2022/07/20 12:08:30;;;;;;;;;;;;;;;23.99;53.73;101121.84;7410063;19;1643;-53
2022/07/20 12:10:58;;;;;;;;;;;;;;;23.89;53.70;101107.59;7408693;19;1533;-58
2022/07/20 12:13:27;;;;;;;;;;;;;;;23.94;53.43;101105.28;7408770;19;1631;-52
2022/07/20 12:15:57;;;;;;;;;;;;;;;23.92;53.69;101100.03;7407821;19;1525;-57
2022/07/20 12:18:39;;;;;;;;;;;;;;;23.96;53.35;101105.97;7409514;19;1616;-54
2022/07/20 12:21:09;;;;;;;;;;;;;;;23.95;53.48;101102.41;7408233;19;1853;-58
2022/07/20 12:23:38;;;;;;;;;;;;;;;23.94;53.81;101100.72;7410030;19;1560;-58
2022/07/20 12:26:21;;;;;;;;;;;;;;;23.94;53.47;101099.88;7409547;19;1603;-57
2022/07/20 12:28:49;;;;;;;;;;;;;;;23.96;53.48;101084.38;7409091;19;1548;-54
2022/07/20 12:31:19;;;;;;;;;;;;;;;23.96;53.64;101087.91;7408375;19;1635;-53
2022/07/20 12:34:06;;;;;;;;;;;;;;;23.97;53.70;101086.03;7409639;19;1641;-53
2022/07/20 12:36:36;;;;;;;;;;;;;;;24.04;53.79;101088.97;7408782;19;1545;-58
2022/07/20 12:39:06;;;;;;;;;;;;;;;23.98;53.69;101079.66;7409763;19;1770;-58
2022/07/20 12:41:35;;;;;;;;;;;;;;;24.01;53.67;101074.78;7406232;19;1872;-58
2022/07/20 12:44:18;;;;;;;;;;;;;;;24.01;53.69;101082.00;7408556;19;1683;-58
2022/07/20 12:46:46;;;;;;;;;;;;;;;24.07;53.46;101086.75;7407959;19;1768;-53
2022/07/20 12:49:23;;;;;;;;;;;;;;;24.02;53.82;101049.44;7405783;19;1560;-58
2022/07/20 12:51:51;;;;;;;;;;;;;;;24.02;53.67;101048.59;7403992;19;1658;-53
2022/07/20 12:54:20;;;;;;;;;;;;;;;24.04;53.46;101057.38;7407487;19;1623;-54
2022/07/20 12:56:50;;;;;;;;;;;;;;;24.01;53.44;101047.75;7406469;19;1549;-52
2022/07/20 12:59:18;;;;;;;;;;;;;;;24.03;53.81;101050.28;7407718;19;1561;-58
2022/07/20 13:01:48;;;;;;;;;;;;;;;24.05;53.54;101048.25;7405468;19;1842;-57
2022/07/20 13:04:17;;;;;;;;;;;;;;;24.03;53.67;101039.47;7406529;19;1674;-53